27°C Temp
15°C Dewpoint
% Humidity
Temperature
0 KM/H
MPH
KTS
Calm
Due North

Wind Speed
Parcialmente Nublado
Pressure 1015.92 (hPa) - 30 (in)
Visibility 6.2 (mi) - 10.0 (km)

Current Conditions
LEAL
Location 70(km)
Metar :LEAL 090700Z 00000KT 9999 FEW045 27/15 Q1016 NOSIG
Sun 9th August 09:00 am

Airport
  Metar Aviation API Data Provided by https://www.checkwx.com/ PHP scripts by weather34.com ©2020